Time;durP1;ratioP1;P1;durP2;ratioP2;P2;SDS_P1;SDS_P2;PMS_P1;PMS_P2;Temp;Humidity;BMP_temperature;BMP_pressure;BME280_temperature;BME280_humidity;BME280_pressure;Samples;Min_cycle;Max_cycle;Signal;HPM_P1;HPM_P2
2024/01/30 00:01:52;;;;;;;30.03;18.50;;;3.70;99.90;;;;;;6214167;23;20439;-70
2024/01/30 00:04:18;;;;;;;31.83;19.27;;;3.70;99.90;;;;;;6187485;23;20012;-69
2024/01/30 00:06:45;;;;;;;30.90;18.77;;;3.70;99.90;;;;;;6213657;23;20000;-70
2024/01/30 00:09:11;;;;;;;32.20;18.80;;;3.70;99.90;;;;;;6186835;23;20383;-70
2024/01/30 00:11:39;;;;;;;33.00;18.97;;;3.70;99.90;;;;;;6213289;23;20273;-70
2024/01/30 00:14:04;;;;;;;28.53;18.53;;;3.60;99.90;;;;;;6213759;23;20004;-69
2024/01/30 00:16:31;;;;;;;33.87;19.07;;;3.60;99.90;;;;;;6213792;23;20000;-69
2024/01/30 00:18:56;;;;;;;37.40;21.27;;;3.60;99.90;;;;;;6213291;23;20023;-69
2024/01/30 00:21:23;;;;;;;37.27;22.67;;;3.50;99.90;;;;;;6186092;23;20446;-69
2024/01/30 00:23:49;;;;;;;44.83;24.77;;;3.60;99.90;;;;;;6212007;23;20020;-69
2024/01/30 00:26:14;;;;;;;38.47;22.33;;;3.50;99.90;;;;;;6213092;23;20011;-68
2024/01/30 00:28:41;;;;;;;43.43;24.07;;;3.50;99.90;;;;;;6213463;23;20004;-68
2024/01/30 00:31:12;;;;;;;43.67;25.00;;;3.40;99.90;;;;;;6213419;23;20008;-69
2024/01/30 00:33:40;;;;;;;48.87;25.17;;;3.40;99.90;;;;;;6213954;23;20013;-69
2024/01/30 00:36:09;;;;;;;49.17;26.43;;;3.40;99.90;;;;;;6213781;23;20007;-69
2024/01/30 00:38:36;;;;;;;49.13;27.60;;;3.30;99.90;;;;;;6213283;23;20001;-69
2024/01/30 00:41:02;;;;;;;47.17;25.80;;;3.40;99.90;;;;;;6213364;23;20016;-69
2024/01/30 00:43:28;;;;;;;47.30;26.67;;;3.40;99.90;;;;;;6212879;23;20023;-69
2024/01/30 00:45:54;;;;;;;46.70;26.67;;;3.40;99.90;;;;;;6213732;23;20001;-68
2024/01/30 00:48:20;;;;;;;52.43;27.53;;;3.40;99.90;;;;;;6213172;23;20009;-68
2024/01/30 00:50:46;;;;;;;46.47;26.60;;;3.40;99.90;;;;;;6213364;23;20019;-68
2024/01/30 00:53:12;;;;;;;46.23;24.70;;;3.30;99.90;;;;;;6213378;23;20011;-69
2024/01/30 00:55:38;;;;;;;40.63;22.47;;;3.30;99.90;;;;;;6213271;23;20036;-69
2024/01/30 00:58:04;;;;;;;43.97;23.83;;;3.30;99.90;;;;;;6213209;23;20004;-69
2024/01/30 01:00:31;;;;;;;41.10;22.63;;;3.30;99.90;;;;;;6213044;23;20005;-70
2024/01/30 01:02:56;;;;;;;42.00;23.53;;;3.20;99.90;;;;;;6213254;23;20016;-70
2024/01/30 01:05:22;;;;;;;43.17;22.63;;;3.10;99.90;;;;;;6213210;23;20016;-69
2024/01/30 01:07:48;;;;;;;41.93;22.47;;;3.10;99.90;;;;;;6213286;23;20007;-69
2024/01/30 01:10:15;;;;;;;41.87;21.80;;;3.00;99.90;;;;;;6213318;23;20000;-69
2024/01/30 01:12:41;;;;;;;36.57;21.60;;;3.00;99.90;;;;;;6213086;23;20035;-69
2024/01/30 01:15:11;;;;;;;38.23;21.00;;;3.00;99.90;;;;;;6213782;23;20000;-70
2024/01/30 01:17:40;;;;;;;36.00;21.37;;;3.00;99.90;;;;;;6214043;23;20085;-69
2024/01/30 01:20:06;;;;;;;45.47;21.50;;;3.00;99.90;;;;;;6213154;23;20013;-69
2024/01/30 01:22:32;;;;;;;34.37;20.90;;;3.00;99.90;;;;;;6212521;23;20108;-69
2024/01/30 01:24:59;;;;;;;35.57;21.03;;;2.90;99.90;;;;;;6212900;23;20001;-70
2024/01/30 01:27:25;;;;;;;37.10;20.47;;;2.90;99.90;;;;;;6213282;23;20047;-69
2024/01/30 01:29:51;;;;;;;36.73;21.10;;;2.90;99.90;;;;;;6213211;23;20004;-69
2024/01/30 01:32:17;;;;;;;39.93;21.43;;;2.90;99.90;;;;;;6214963;23;20378;-69
2024/01/30 01:34:43;;;;;;;38.27;21.30;;;2.90;99.90;;;;;;6215143;23;20087;-69
2024/01/30 01:37:09;;;;;;;38.50;20.90;;;2.90;99.90;;;;;;6214915;23;20005;-69
2024/01/30 01:39:35;;;;;;;37.23;20.00;;;2.90;99.90;;;;;;6215302;23;20004;-69
2024/01/30 01:42:01;;;;;;;34.33;20.40;;;2.90;99.90;;;;;;6214891;23;20013;-69
2024/01/30 01:44:27;;;;;;;38.50;20.53;;;2.90;99.90;;;;;;6215208;23;20059;-69
2024/01/30 01:46:54;;;;;;;34.63;19.87;;;2.80;99.90;;;;;;6214296;23;20031;-69
2024/01/30 01:49:21;;;;;;;32.67;19.10;;;2.80;99.90;;;;;;6187771;23;20002;-69
2024/01/30 01:51:48;;;;;;;34.00;20.03;;;2.90;99.90;;;;;;6214773;23;20403;-69
2024/01/30 01:54:15;;;;;;;38.27;21.13;;;3.00;99.90;;;;;;6214891;23;20319;-69
2024/01/30 01:56:43;;;;;;;40.50;20.00;;;3.00;99.90;;;;;;6214690;23;20004;-69
2024/01/30 01:59:09;;;;;;;35.60;19.23;;;3.00;99.90;;;;;;6211493;23;20008;-69
2024/01/30 02:01:37;;;;;;;34.00;18.43;;;3.00;99.90;;;;;;6211176;23;20013;-69
2024/01/30 02:04:03;;;;;;;35.83;19.80;;;2.90;99.90;;;;;;6211769;23;20446;-69
2024/01/30 02:06:29;;;;;;;40.63;20.63;;;2.90;99.90;;;;;;6214954;23;20009;-70
2024/01/30 02:08:55;;;;;;;34.27;19.17;;;2.90;99.90;;;;;;6215099;23;20084;-69
2024/01/30 02:11:22;;;;;;;32.30;18.90;;;2.90;99.90;;;;;;6214966;23;20075;-69
2024/01/30 02:13:49;;;;;;;35.63;19.10;;;2.90;99.90;;;;;;6214406;23;20012;-69
2024/01/30 02:16:14;;;;;;;36.70;18.47;;;2.90;99.90;;;;;;6214650;23;20028;-69
2024/01/30 02:18:45;;;;;;;30.93;17.47;;;2.90;99.90;;;;;;6214381;23;20067;-69
2024/01/30 02:21:12;;;;;;;29.87;18.27;;;2.90;99.90;;;;;;6214584;23;20024;-69
2024/01/30 02:23:39;;;;;;;36.30;17.77;;;2.90;99.90;;;;;;6214726;23;20008;-69
2024/01/30 02:26:05;;;;;;;31.73;18.03;;;2.80;99.90;;;;;;6214554;23;20024;-69
2024/01/30 02:28:30;;;;;;;35.97;18.97;;;2.80;99.90;;;;;;6214379;23;20005;-69
2024/01/30 02:30:56;;;;;;;32.87;17.90;;;2.80;99.90;;;;;;6214451;23;20061;-69
2024/01/30 02:33:22;;;;;;;33.13;18.47;;;2.80;99.90;;;;;;6214388;23;20036;-69
2024/01/30 02:35:48;;;;;;;34.43;17.90;;;2.70;99.90;;;;;;6213947;23;20074;-69
2024/01/30 02:38:15;;;;;;;31.90;17.63;;;2.70;99.90;;;;;;6214180;23;20373;-70
2024/01/30 02:40:41;;;;;;;25.83;15.40;;;2.70;99.90;;;;;;6214472;23;19997;-69
2024/01/30 02:43:06;;;;;;;24.50;15.47;;;2.70;99.90;;;;;;6213741;23;20019;-69
2024/01/30 02:45:32;;;;;;;35.53;17.77;;;2.80;99.90;;;;;;6214804;23;20478;-70
2024/01/30 02:47:58;;;;;;;32.73;17.60;;;2.80;99.90;;;;;;6215184;23;20004;-69
2024/01/30 02:50:23;;;;;;;31.47;16.57;;;2.80;99.90;;;;;;6214813;23;20004;-70
2024/01/30 02:52:49;;;;;;;26.80;15.90;;;2.70;99.90;;;;;;6214569;23;20402;-70
2024/01/30 02:55:17;;;;;;;24.57;14.37;;;2.70;99.90;;;;;;6214947;23;20001;-69
2024/01/30 02:57:43;;;;;;;27.50;15.50;;;2.70;99.90;;;;;;6214345;23;20000;-69
2024/01/30 03:00:10;;;;;;;28.90;14.77;;;2.80;99.90;;;;;;6214418;23;20004;-69
2024/01/30 03:02:36;;;;;;;27.53;14.90;;;2.80;99.90;;;;;;6214913;23;20008;-70
2024/01/30 03:05:03;;;;;;;29.07;15.40;;;2.80;99.90;;;;;;6214599;23;20005;-69
2024/01/30 03:07:29;;;;;;;27.40;15.57;;;2.80;99.90;;;;;;6214561;23;20437;-69
2024/01/30 03:09:55;;;;;;;27.10;14.77;;;2.80;99.90;;;;;;6214581;23;20087;-70
2024/01/30 03:12:21;;;;;;;22.17;13.63;;;2.70;99.90;;;;;;6215013;23;20004;-69
2024/01/30 03:14:47;;;;;;;27.00;14.10;;;2.80;99.90;;;;;;6215159;23;20498;-69
2024/01/30 03:17:13;;;;;;;25.53;14.50;;;2.80;99.90;;;;;;6215213;23;20111;-70
2024/01/30 03:19:39;;;;;;;25.43;14.30;;;2.80;99.90;;;;;;6214697;23;19996;-70
2024/01/30 03:22:05;;;;;;;26.90;14.80;;;2.70;99.90;;;;;;6214257;23;20012;-69
2024/01/30 03:24:30;;;;;;;26.40;14.03;;;2.80;99.90;;;;;;6214369;23;20024;-70
2024/01/30 03:26:56;;;;;;;26.70;14.43;;;2.80;99.90;;;;;;6214143;23;20008;-69
2024/01/30 03:29:22;;;;;;;29.33;15.37;;;2.70;99.90;;;;;;6214385;23;20001;-69
2024/01/30 03:31:48;;;;;;;25.00;14.40;;;2.70;99.90;;;;;;6214244;23;20000;-69
2024/01/30 03:34:13;;;;;;;24.40;13.90;;;2.70;99.90;;;;;;6214413;23;20000;-69
2024/01/30 03:36:39;;;;;;;25.77;14.30;;;2.70;99.90;;;;;;6214623;23;20031;-69
2024/01/30 03:39:06;;;;;;;22.03;12.83;;;2.70;99.90;;;;;;6213955;23;20311;-69
2024/01/30 03:41:31;;;;;;;20.40;12.37;;;2.60;99.90;;;;;;6214508;23;20087;-69
2024/01/30 03:43:57;;;;;;;23.10;13.77;;;2.70;99.90;;;;;;6213999;23;20097;-69
2024/01/30 03:46:23;;;;;;;22.23;12.07;;;2.70;99.90;;;;;;6214227;23;20005;-69
2024/01/30 03:48:49;;;;;;;22.07;13.00;;;2.70;99.90;;;;;;6214164;23;20058;-69
2024/01/30 03:51:15;;;;;;;22.37;12.53;;;2.60;99.90;;;;;;6214319;23;20071;-70
2024/01/30 03:53:42;;;;;;;26.70;13.77;;;2.60;99.90;;;;;;6214163;23;20034;-69
2024/01/30 03:56:08;;;;;;;20.53;11.93;;;2.60;99.90;;;;;;6187051;23;20000;-70
2024/01/30 03:58:34;;;;;;;21.37;12.93;;;2.60;99.90;;;;;;6214005;23;20009;-69
2024/01/30 04:01:00;;;;;;;24.17;13.10;;;2.50;99.90;;;;;;6213697;23;20004;-69
2024/01/30 04:03:26;;;;;;;25.17;13.63;;;2.50;99.90;;;;;;6213233;23;20009;-69
2024/01/30 04:05:52;;;;;;;26.83;14.40;;;2.60;99.90;;;;;;6213882;23;20000;-69
2024/01/30 04:08:18;;;;;;;24.47;13.03;;;2.60;99.90;;;;;;6213797;23;20007;-69
2024/01/30 04:10:44;;;;;;;24.30;12.97;;;2.50;99.90;;;;;;6214462;23;20008;-69
2024/01/30 04:13:10;;;;;;;24.90;13.43;;;2.50;99.90;;;;;;6214009;23;20324;-69
2024/01/30 04:15:36;;;;;;;22.70;13.10;;;2.60;99.90;;;;;;6213859;23;20008;-70
2024/01/30 04:18:01;;;;;;;25.10;13.07;;;2.60;99.90;;;;;;6213821;23;20005;-69
2024/01/30 04:20:27;;;;;;;21.90;11.83;;;2.60;99.90;;;;;;6213270;23;20454;-69
2024/01/30 04:22:53;;;;;;;22.07;12.63;;;2.50;99.90;;;;;;6213691;23;20015;-69
2024/01/30 04:25:19;;;;;;;24.17;12.10;;;2.60;99.90;;;;;;6213349;23;20001;-69
2024/01/30 04:27:44;;;;;;;19.30;11.83;;;2.60;99.90;;;;;;6213159;23;20001;-70
2024/01/30 04:30:11;;;;;;;19.77;11.63;;;2.60;99.90;;;;;;6213602;23;19997;-69
2024/01/30 04:32:37;;;;;;;22.67;11.00;;;2.50;99.90;;;;;;6213644;23;20427;-69
2024/01/30 04:35:03;;;;;;;24.33;10.23;;;2.40;99.90;;;;;;6213553;23;20167;-69
2024/01/30 04:37:28;;;;;;;18.90;10.60;;;2.40;99.90;;;;;;6211678;23;20011;-69
2024/01/30 04:39:54;;;;;;;17.73;10.03;;;2.40;99.90;;;;;;6213202;23;20005;-69
2024/01/30 04:42:20;;;;;;;21.10;10.53;;;2.30;99.90;;;;;;6213038;23;20106;-69
2024/01/30 04:44:46;;;;;;;21.77;11.47;;;2.20;99.90;;;;;;6213762;23;20412;-69
2024/01/30 04:47:11;;;;;;;19.67;10.80;;;2.20;99.90;;;;;;6213592;23;19996;-69
2024/01/30 04:49:40;;;;;;;22.73;12.20;;;2.20;99.90;;;;;;6213517;23;20103;-70
2024/01/30 04:52:07;;;;;;;20.10;10.93;;;2.20;99.90;;;;;;6186957;23;20064;-69
2024/01/30 04:54:33;;;;;;;20.43;11.40;;;2.20;99.90;;;;;;6213274;23;20034;-69
2024/01/30 04:56:58;;;;;;;24.53;11.07;;;2.10;99.90;;;;;;6213639;23;20008;-70
2024/01/30 04:59:25;;;;;;;20.40;11.70;;;2.10;99.90;;;;;;6213520;23;20025;-70
2024/01/30 05:01:50;;;;;;;21.53;11.37;;;2.10;99.90;;;;;;6213277;23;20008;-69
2024/01/30 05:04:16;;;;;;;21.50;11.00;;;2.10;99.90;;;;;;6214034;23;19997;-69
2024/01/30 05:06:42;;;;;;;16.73;9.93;;;2.00;99.90;;;;;;6215239;23;20383;-69
2024/01/30 05:09:09;;;;;;;20.13;10.37;;;2.00;99.90;;;;;;6216127;23;20001;-69
2024/01/30 05:11:39;;;;;;;21.23;10.20;;;2.10;99.90;;;;;;6189825;23;20015;-69
2024/01/30 05:14:05;;;;;;;19.00;10.63;;;2.00;99.90;;;;;;6216126;23;20066;-69
2024/01/30 05:16:31;;;;;;;16.80;10.50;;;2.10;99.90;;;;;;6215731;23;20003;-69
2024/01/30 05:18:57;;;;;;;20.43;10.67;;;2.10;99.90;;;;;;6215754;23;20080;-69
2024/01/30 05:21:23;;;;;;;23.93;12.07;;;2.10;99.90;;;;;;6215322;23;20346;-69
2024/01/30 05:23:49;;;;;;;21.47;10.60;;;2.00;99.90;;;;;;6215124;23;20008;-69
2024/01/30 05:26:15;;;;;;;19.13;10.73;;;2.00;99.90;;;;;;6215087;23;20087;-69
2024/01/30 05:28:40;;;;;;;21.33;11.07;;;2.00;99.90;;;;;;6215419;23;20056;-69
2024/01/30 05:31:06;;;;;;;17.93;10.37;;;2.00;99.90;;;;;;6215154;23;20001;-69
2024/01/30 05:33:32;;;;;;;24.70;11.23;;;2.00;99.90;;;;;;6215415;23;20079;-69
2024/01/30 05:35:58;;;;;;;24.27;10.73;;;2.00;99.90;;;;;;6215419;23;20312;-70
2024/01/30 05:38:23;;;;;;;21.83;11.43;;;2.00;99.90;;;;;;6215587;23;20005;-70
2024/01/30 05:40:49;;;;;;;22.70;11.70;;;2.00;99.90;;;;;;6215130;23;20075;-69
2024/01/30 05:43:15;;;;;;;25.03;11.80;;;2.00;99.90;;;;;;6188548;23;20012;-69
2024/01/30 05:45:41;;;;;;;24.07;12.03;;;2.00;99.90;;;;;;6215303;23;20000;-69
2024/01/30 05:48:07;;;;;;;26.07;12.80;;;2.00;99.90;;;;;;6215111;23;20027;-69
2024/01/30 05:50:33;;;;;;;21.50;10.57;;;1.90;99.90;;;;;;6215196;23;20001;-69
2024/01/30 05:52:58;;;;;;;22.43;11.90;;;1.90;99.90;;;;;;6215208;23;20441;-69
2024/01/30 05:55:24;;;;;;;24.83;12.13;;;1.90;99.90;;;;;;6215741;23;20011;-69
2024/01/30 05:57:52;;;;;;;20.93;11.73;;;1.90;99.90;;;;;;6215065;23;20035;-69
2024/01/30 06:00:18;;;;;;;28.30;12.20;;;1.90;99.90;;;;;;6214967;23;20008;-69
2024/01/30 06:02:43;;;;;;;30.03;12.47;;;1.90;99.90;;;;;;6214163;23;20009;-69
2024/01/30 06:05:09;;;;;;;27.63;12.50;;;1.90;99.90;;;;;;6214380;23;20008;-69
2024/01/30 06:07:35;;;;;;;26.60;12.63;;;1.80;99.90;;;;;;6215064;23;20078;-69
2024/01/30 06:10:01;;;;;;;21.37;10.93;;;1.70;99.90;;;;;;6215030;23;20004;-69
2024/01/30 06:12:28;;;;;;;24.47;11.43;;;1.70;99.90;;;;;;6214696;23;20008;-69
2024/01/30 06:14:56;;;;;;;29.53;14.90;;;1.70;99.90;;;;;;6187741;23;20010;-70
2024/01/30 06:17:22;;;;;;;49.90;21.50;;;1.60;99.90;;;;;;6214069;23;20029;-69
2024/01/30 06:19:48;;;;;;;45.20;16.93;;;1.70;99.90;;;;;;6214420;23;20062;-70
2024/01/30 06:22:14;;;;;;;36.57;17.53;;;1.70;99.90;;;;;;6214890;23;20012;-70
2024/01/30 06:24:40;;;;;;;38.97;18.27;;;1.80;99.90;;;;;;6215023;23;20001;-69
2024/01/30 06:27:06;;;;;;;40.47;18.47;;;1.80;99.90;;;;;;6214986;23;20027;-69
2024/01/30 06:29:31;;;;;;;28.80;14.40;;;1.80;99.90;;;;;;6214915;23;20004;-70
2024/01/30 06:31:57;;;;;;;26.13;14.37;;;1.80;99.90;;;;;;6215344;23;20005;-70
2024/01/30 06:34:23;;;;;;;24.13;13.20;;;1.80;99.90;;;;;;6214811;23;20054;-69
2024/01/30 06:36:49;;;;;;;24.67;11.17;;;1.80;99.90;;;;;;6214818;23;20100;-70
2024/01/30 06:39:14;;;;;;;21.57;10.50;;;1.80;99.90;;;;;;6214798;23;19996;-69
2024/01/30 06:41:40;;;;;;;21.17;12.60;;;1.80;99.90;;;;;;6215528;23;20333;-69
2024/01/30 06:44:08;;;;;;;32.33;11.00;;;1.80;99.90;;;;;;6215554;23;20023;-70
2024/01/30 06:46:34;;;;;;;31.73;14.30;;;1.80;99.90;;;;;;6215672;23;20004;-68
2024/01/30 06:48:59;;;;;;;25.97;12.80;;;1.80;99.90;;;;;;6215404;23;20043;-68
2024/01/30 06:51:25;;;;;;;26.00;12.80;;;1.80;99.90;;;;;;6215250;23;20327;-69
2024/01/30 06:53:51;;;;;;;28.03;12.30;;;1.80;99.90;;;;;;6214268;23;20079;-69
2024/01/30 06:56:20;;;;;;;24.77;12.40;;;1.80;99.90;;;;;;6187355;23;20000;-69
2024/01/30 06:58:47;;;;;;;19.27;10.70;;;1.90;99.90;;;;;;6214344;23;20007;-69
2024/01/30 07:01:14;;;;;;;22.20;10.97;;;1.90;99.90;;;;;;6214438;23;20462;-69
2024/01/30 07:03:40;;;;;;;21.20;10.67;;;1.90;99.90;;;;;;6214127;23;20438;-69
2024/01/30 07:06:05;;;;;;;25.23;10.97;;;2.00;99.90;;;;;;6214561;23;20001;-69
2024/01/30 07:08:31;;;;;;;28.87;12.13;;;2.00;99.90;;;;;;6214609;23;20501;-71
2024/01/30 07:10:57;;;;;;;22.27;12.53;;;2.00;99.90;;;;;;6214917;23;20073;-69
2024/01/30 07:13:23;;;;;;;23.30;12.50;;;2.00;99.90;;;;;;6214640;23;20416;-68
2024/01/30 07:15:48;;;;;;;24.03;10.60;;;2.00;99.90;;;;;;6214520;23;20000;-69
2024/01/30 07:18:15;;;;;;;23.40;11.30;;;2.00;99.90;;;;;;6211441;23;20105;-69
2024/01/30 07:20:46;;;;;;;21.87;11.10;;;2.10;99.90;;;;;;6211267;23;20043;-68
2024/01/30 07:23:15;;;;;;;27.63;11.83;;;2.10;99.90;;;;;;6211840;23;20016;-70
2024/01/30 07:25:41;;;;;;;24.20;10.77;;;2.20;99.90;;;;;;6213659;23;20020;-69
2024/01/30 07:28:09;;;;;;;26.07;10.83;;;2.20;99.90;;;;;;6214316;23;20370;-70
2024/01/30 07:30:35;;;;;;;27.47;11.00;;;2.20;99.90;;;;;;6214112;23;20284;-70
2024/01/30 07:33:01;;;;;;;31.33;10.80;;;2.30;99.90;;;;;;6213545;23;20016;-70
2024/01/30 07:35:27;;;;;;;21.50;12.03;;;2.40;99.90;;;;;;6213971;23;20075;-70
2024/01/30 07:37:52;;;;;;;21.57;11.47;;;2.30;99.90;;;;;;6213846;23;19996;-69
2024/01/30 07:40:18;;;;;;;25.33;12.23;;;;;;;;;;6212706;23;20423;-68
2024/01/30 07:42:44;;;;;;;28.17;12.23;;;2.40;99.90;;;;;;6213753;23;20013;-69
2024/01/30 07:45:10;;;;;;;22.80;11.57;;;2.40;99.90;;;;;;6209709;23;20198;-69
2024/01/30 07:47:36;;;;;;;29.63;12.50;;;2.50;99.90;;;;;;6208564;23;20004;-69
2024/01/30 07:50:01;;;;;;;25.17;12.27;;;2.50;99.90;;;;;;6210929;23;20032;-74
2024/01/30 07:52:28;;;;;;;22.43;12.30;;;2.60;99.90;;;;;;6210333;23;20020;-74
2024/01/30 07:54:53;;;;;;;38.73;13.13;;;2.70;99.90;;;;;;6210437;23;20008;-75
2024/01/30 07:57:19;;;;;;;36.13;14.67;;;2.80;99.90;;;;;;6212154;23;20005;-73
2024/01/30 07:59:45;;;;;;;27.93;13.37;;;2.90;99.90;;;;;;6212073;23;20008;-73
2024/01/30 08:02:14;;;;;;;37.00;15.13;;;3.00;99.90;;;;;;6212163;23;20012;-74
2024/01/30 08:04:40;;;;;;;27.97;14.20;;;3.00;99.90;;;;;;6185305;23;20013;-73
2024/01/30 08:07:05;;;;;;;32.73;15.23;;;3.10;99.90;;;;;;6213501;23;20008;-73
2024/01/30 08:09:31;;;;;;;28.93;15.07;;;3.20;99.90;;;;;;6214043;23;20005;-73
2024/01/30 08:11:57;;;;;;;31.60;14.70;;;3.30;99.90;;;;;;6186934;23;20008;-74
2024/01/30 08:14:23;;;;;;;27.83;13.87;;;3.40;99.90;;;;;;6213877;23;20023;-74
2024/01/30 08:16:49;;;;;;;31.70;14.03;;;3.50;99.90;;;;;;6214390;23;20066;-73
2024/01/30 08:19:15;;;;;;;25.17;12.30;;;3.50;99.90;;;;;;6214222;23;19997;-74
2024/01/30 08:21:41;;;;;;;27.10;12.77;;;3.70;99.90;;;;;;6213079;23;20146;-73
2024/01/30 08:24:07;;;;;;;29.07;14.03;;;3.80;99.90;;;;;;6213844;23;20150;-72
2024/01/30 08:26:33;;;;;;;21.43;12.07;;;3.80;99.90;;;;;;6213835;23;20008;-71
2024/01/30 08:28:59;;;;;;;28.83;11.67;;;3.90;99.90;;;;;;6213662;23;19997;-71
2024/01/30 08:31:25;;;;;;;22.67;11.13;;;4.00;99.90;;;;;;6213498;23;20009;-72
2024/01/30 08:33:51;;;;;;;24.90;11.73;;;4.00;99.90;;;;;;6213585;23;20062;-72
2024/01/30 08:36:17;;;;;;;20.93;11.00;;;4.10;99.90;;;;;;6213492;23;20437;-72
2024/01/30 08:38:43;;;;;;;24.30;11.47;;;4.20;99.90;;;;;;6213444;23;20454;-72
2024/01/30 08:41:09;;;;;;;22.93;11.03;;;4.30;99.90;;;;;;6213305;23;19996;-71
2024/01/30 08:43:36;;;;;;;28.37;10.97;;;4.30;99.90;;;;;;6213805;23;20381;-71
2024/01/30 08:46:02;;;;;;;24.00;12.17;;;4.40;99.90;;;;;;6214048;23;20004;-72
2024/01/30 08:48:28;;;;;;;28.30;12.30;;;4.50;99.90;;;;;;6213709;23;20005;-72
2024/01/30 08:50:54;;;;;;;22.90;12.27;;;4.60;99.90;;;;;;6214023;23;20007;-71
2024/01/30 08:53:20;;;;;;;23.23;12.13;;;4.70;99.90;;;;;;6213933;23;20032;-72
2024/01/30 08:55:45;;;;;;;25.50;12.27;;;4.60;99.90;;;;;;6214018;23;20051;-72
2024/01/30 08:58:11;;;;;;;23.30;10.77;;;4.80;99.90;;;;;;6213952;23;20431;-71
2024/01/30 09:00:37;;;;;;;24.27;11.53;;;5.00;99.90;;;;;;6213908;23;19997;-71
2024/01/30 09:03:06;;;;;;;19.00;10.07;;;5.10;99.90;;;;;;6213436;23;20083;-71
2024/01/30 09:05:31;;;;;;;19.03;9.57;;;5.20;99.90;;;;;;6212949;23;20330;-72
2024/01/30 09:07:57;;;;;;;18.87;10.03;;;5.30;99.90;;;;;;6213938;23;20008;-72
2024/01/30 09:10:23;;;;;;;20.93;9.30;;;5.30;99.90;;;;;;6213894;23;20023;-72
2024/01/30 09:12:49;;;;;;;19.80;8.53;;;5.40;99.90;;;;;;6214032;23;20011;-71
2024/01/30 09:15:15;;;;;;;15.47;8.90;;;5.50;99.90;;;;;;6213929;23;20166;-72
2024/01/30 09:17:41;;;;;;;14.70;8.17;;;5.60;99.90;;;;;;6214007;23;20375;-71
2024/01/30 09:20:07;;;;;;;16.40;7.83;;;5.60;99.90;;;;;;6213445;23;20102;-72
2024/01/30 09:22:33;;;;;;;19.73;7.10;;;5.70;99.90;;;;;;6213675;23;20063;-71
2024/01/30 09:24:58;;;;;;;17.73;7.90;;;5.80;99.90;;;;;;6214006;23;20005;-72
2024/01/30 09:27:24;;;;;;;13.03;6.87;;;5.90;99.90;;;;;;6214775;23;20009;-71
2024/01/30 09:29:50;;;;;;;10.97;6.43;;;6.00;99.90;;;;;;6214308;23;20007;-71
2024/01/30 09:32:17;;;;;;;12.27;6.40;;;6.00;99.90;;;;;;6187735;23;20005;-71
2024/01/30 09:34:43;;;;;;;14.17;6.63;;;6.10;99.90;;;;;;6214241;23;20422;-71
2024/01/30 09:37:09;;;;;;;12.10;6.10;;;6.20;99.50;;;;;;6214011;23;20007;-71
2024/01/30 09:39:34;;;;;;;13.67;6.83;;;6.30;97.10;;;;;;6214081;23;20331;-71
2024/01/30 09:42:23;;;;;;;17.13;7.40;;;6.30;96.00;;;;;;6213773;23;20311;-71
2024/01/30 09:44:52;;;;;;;13.27;7.17;;;6.40;93.80;;;;;;6213838;23;20320;-71
2024/01/30 09:47:17;;;;;;;17.10;7.43;;;6.50;94.70;;;;;;6213866;23;20036;-71
2024/01/30 09:49:44;;;;;;;16.20;7.60;;;6.60;94.30;;;;;;6214023;23;20000;-72
2024/01/30 09:52:11;;;;;;;16.97;8.27;;;6.70;95.00;;;;;;6215067;23;20000;-72
2024/01/30 09:54:38;;;;;;;21.10;8.03;;;6.70;95.50;;;;;;6216446;23;20001;-71
2024/01/30 09:57:05;;;;;;;17.77;8.87;;;6.80;97.60;;;;;;6189383;23;20011;-71
2024/01/30 09:59:31;;;;;;;12.63;8.23;;;6.80;91.90;;;;;;6215616;23;20008;-71
2024/01/30 10:01:57;;;;;;;20.37;7.90;;;6.90;91.20;;;;;;6213838;23;20383;-71
2024/01/30 10:04:23;;;;;;;15.77;7.50;;;7.00;89.30;;;;;;6215752;23;20026;-72
2024/01/30 10:06:50;;;;;;;11.73;7.10;;;7.10;86.00;;;;;;6215604;23;20017;-71
2024/01/30 10:09:16;;;;;;;15.07;6.53;;;7.20;86.10;;;;;;6189001;23;20493;-71
2024/01/30 10:11:42;;;;;;;11.17;5.00;;;7.20;86.40;;;;;;6215390;23;20005;-71
2024/01/30 10:14:08;;;;;;;16.43;4.97;;;7.30;86.40;;;;;;6213912;23;20009;-71
2024/01/30 10:16:35;;;;;;;10.93;5.30;;;7.40;85.90;;;;;;6215761;23;20051;-72
2024/01/30 10:19:00;;;;;;;12.23;4.80;;;7.50;87.90;;;;;;6214934;23;20075;-71
2024/01/30 10:21:27;;;;;;;11.47;4.97;;;7.50;87.30;;;;;;6214697;23;20063;-71
2024/01/30 10:23:53;;;;;;;11.43;4.50;;;7.60;87.00;;;;;;6215087;23;20339;-71
2024/01/30 10:26:18;;;;;;;9.57;4.67;;;7.70;87.50;;;;;;6214927;23;20000;-72
2024/01/30 10:28:44;;;;;;;10.53;3.73;;;7.80;86.10;;;;;;6215068;23;20027;-71
2024/01/30 10:31:10;;;;;;;8.03;3.43;;;7.90;85.70;;;;;;6214780;23;20004;-71
2024/01/30 10:33:36;;;;;;;9.63;4.47;;;8.00;83.10;;;;;;6215259;23;20038;-71
2024/01/30 10:36:05;;;;;;;12.10;3.80;;;7.90;82.90;;;;;;6215163;23;20051;-72
2024/01/30 10:38:33;;;;;;;10.03;4.57;;;8.10;83.60;;;;;;6215263;23;20394;-71
2024/01/30 10:41:01;;;;;;;11.43;4.23;;;8.20;86.00;;;;;;6214865;23;20387;-71
2024/01/30 10:43:35;;;;;;;7.90;4.23;;;8.30;78.20;;;;;;6214869;23;20059;-72
2024/01/30 10:46:20;;;;;;;8.37;3.43;;;8.40;83.80;;;;;;6215208;23;20445;-72
2024/01/30 10:48:58;;;;;;;8.40;3.80;;;8.50;85.10;;;;;;6203807;23;20000;-72
2024/01/30 10:51:26;;;;;;;6.77;3.80;;;8.50;81.80;;;;;;6214482;23;20419;-72
2024/01/30 10:53:53;;;;;;;8.20;3.43;;;8.60;77.40;;;;;;6214319;23;20369;-72
2024/01/30 10:56:23;;;;;;;7.43;3.57;;;8.70;76.60;;;;;;6214668;23;20004;-71
2024/01/30 10:58:53;;;;;;;10.80;3.53;;;8.80;73.90;;;;;;6214448;23;20486;-73
2024/01/30 11:01:23;;;;;;;6.67;3.60;;;8.90;72.10;;;;;;6214270;23;20375;-73
2024/01/30 11:03:56;;;;;;;5.67;3.10;;;8.90;69.90;;;;;;6213831;23;20027;-72
2024/01/30 11:06:23;;;;;;;6.77;3.60;;;9.00;66.10;;;;;;6214301;23;20063;-72
2024/01/30 11:09:09;;;;;;;9.23;4.03;;;9.10;65.30;;;;;;6187842;23;20364;-72
2024/01/30 11:11:52;;;;;;;10.03;3.87;;;9.20;65.70;;;;;;6214190;23;20004;-72
2024/01/30 11:14:24;;;;;;;14.07;4.57;;;9.30;67.70;;;;;;6213787;23;20000;-72
2024/01/30 11:16:50;;;;;;;;;;;9.30;68.10;;;;;;6214389;23;19996;-72
2024/01/30 11:19:23;;;;;;;15.53;4.57;;;9.40;66.30;;;;;;6214120;23;19907;-71
2024/01/30 11:21:53;;;;;;;18.20;5.30;;;9.50;66.80;;;;;;6214135;23;20009;-72
2024/01/30 11:24:21;;;;;;;16.90;4.77;;;9.50;66.60;;;;;;6187348;23;20020;-72
2024/01/30 11:26:49;;;;;;;19.70;4.63;;;9.60;68.00;;;;;;6213810;23;20379;-72
2024/01/30 11:29:15;;;;;;;19.70;4.83;;;9.70;71.10;;;;;;6213657;23;20001;-71
2024/01/30 11:31:52;;;;;;;13.10;4.37;;;9.80;69.80;;;;;;6213796;23;20087;-71
2024/01/30 11:34:19;;;;;;;14.90;4.37;;;9.90;69.50;;;;;;6213821;23;20005;-72
2024/01/30 11:36:55;;;;;;;11.30;4.30;;;10.00;70.00;;;;;;6213769;23;20012;-71
2024/01/30 11:39:21;;;;;;;13.00;4.43;;;10.10;70.00;;;;;;6213000;23;20004;-71
2024/01/30 11:41:50;;;;;;;11.20;4.00;;;10.10;69.40;;;;;;6212701;23;20093;-72
2024/01/30 11:44:16;;;;;;;20.70;3.90;;;10.20;68.90;;;;;;6213732;23;20008;-72
2024/01/30 11:46:42;;;;;;;9.20;3.27;;;10.30;67.60;;;;;;6213620;23;20074;-70
2024/01/30 11:49:08;;;;;;;13.47;3.67;;;10.40;67.50;;;;;;6213300;23;20005;-72
2024/01/30 11:51:34;;;;;;;9.80;3.43;;;10.50;65.80;;;;;;6213419;23;20054;-72
2024/01/30 11:53:59;;;;;;;9.17;3.83;;;10.50;65.00;;;;;;6213173;23;20378;-72
2024/01/30 11:56:26;;;;;;;14.13;4.77;;;10.60;65.30;;;;;;6213681;23;20005;-71
2024/01/30 11:58:52;;;;;;;15.90;4.07;;;10.70;64.90;;;;;;6213408;23;19996;-72
2024/01/30 12:01:18;;;;;;;14.13;3.53;;;10.70;65.30;;;;;;6212816;23;20011;-71
2024/01/30 12:03:50;;;;;;;11.90;3.80;;;10.80;64.10;;;;;;6212863;23;20047;-71
2024/01/30 12:06:16;;;;;;;11.67;4.43;;;10.80;64.40;;;;;;6213282;23;19999;-72
2024/01/30 12:08:42;;;;;;;9.68;4.28;;;10.90;64.80;;;;;;6186495;23;20330;-72
2024/01/30 12:11:08;;;;;;;15.60;4.37;;;11.00;63.60;;;;;;6213442;23;20130;-71
2024/01/30 12:13:34;;;;;;;10.87;4.20;;;11.10;63.60;;;;;;6214213;23;20091;-72
2024/01/30 12:16:01;;;;;;;14.03;4.63;;;11.20;63.10;;;;;;6212980;23;20437;-71
2024/01/30 12:18:27;;;;;;;18.10;3.87;;;11.30;63.10;;;;;;6213240;23;20399;-72
2024/01/30 12:21:01;;;;;;;10.37;3.80;;;11.30;62.70;;;;;;6212696;23;20009;-71
2024/01/30 12:23:28;;;;;;;9.27;3.60;;;11.40;62.40;;;;;;6213250;23;20017;-72
2024/01/30 12:25:54;;;;;;;8.43;3.40;;;11.50;61.50;;;;;;6213246;23;20342;-72
2024/01/30 12:28:20;;;;;;;10.18;3.50;;;11.50;62.20;;;;;;6213539;23;20024;-71
2024/01/30 12:30:46;;;;;;;10.35;3.13;;;11.60;61.10;;;;;;6214017;23;20106;-72
2024/01/30 12:33:18;;;;;;;6.28;2.60;;;11.60;61.60;;;;;;6214238;23;20084;-68
2024/01/30 12:35:48;;;;;;;6.40;3.03;;;11.70;61.30;;;;;;6213210;23;20000;-71
2024/01/30 12:38:14;;;;;;;6.15;2.80;;;11.80;60.10;;;;;;6213365;23;20001;-71